sensor_id;sensor_type;location;lat;lon;timestamp;P1;durP1;ratioP1;P2;durP2;ratioP2
33108;SDS011;19481;51.118;6.940;2023-08-24T00:04:36;3.22;;;2.53;;
33108;SDS011;19481;51.118;6.940;2023-08-24T00:09:39;6.75;;;2.38;;
33108;SDS011;19481;51.118;6.940;2023-08-24T00:14:41;4.25;;;2.33;;
33108;SDS011;19481;51.118;6.940;2023-08-24T00:19:42;7.30;;;3.10;;
33108;SDS011;19481;51.118;6.940;2023-08-24T00:24:45;3.03;;;2.30;;
33108;SDS011;19481;51.118;6.940;2023-08-24T00:29:47;3.10;;;2.55;;
33108;SDS011;19481;51.118;6.940;2023-08-24T00:34:48;2.35;;;2.03;;
33108;SDS011;19481;51.118;6.940;2023-08-24T00:39:51;3.05;;;2.42;;
33108;SDS011;19481;51.118;6.940;2023-08-24T00:44:53;3.38;;;2.30;;
33108;SDS011;19481;51.118;6.940;2023-08-24T00:49:55;3.70;;;2.20;;
33108;SDS011;19481;51.118;6.940;2023-08-24T00:54:58;3.60;;;2.50;;
33108;SDS011;19481;51.118;6.940;2023-08-24T01:00:02;4.15;;;2.33;;
33108;SDS011;19481;51.118;6.940;2023-08-24T01:05:05;4.25;;;2.35;;
33108;SDS011;19481;51.118;6.940;2023-08-24T01:10:10;3.88;;;2.60;;
33108;SDS011;19481;51.118;6.940;2023-08-24T01:15:13;6.80;;;2.35;;
33108;SDS011;19481;51.118;6.940;2023-08-24T01:20:18;2.70;;;2.33;;
33108;SDS011;19481;51.118;6.940;2023-08-24T01:25:24;3.00;;;2.28;;
33108;SDS011;19481;51.118;6.940;2023-08-24T01:30:37;3.33;;;2.30;;
33108;SDS011;19481;51.118;6.940;2023-08-24T01:35:38;8.13;;;2.30;;
33108;SDS011;19481;51.118;6.940;2023-08-24T01:40:43;3.92;;;2.30;;
33108;SDS011;19481;51.118;6.940;2023-08-24T01:45:51;4.45;;;2.80;;
33108;SDS011;19481;51.118;6.940;2023-08-24T01:50:56;7.28;;;2.40;;
33108;SDS011;19481;51.118;6.940;2023-08-24T01:55:58;2.75;;;2.22;;
33108;SDS011;19481;51.118;6.940;2023-08-24T02:01:01;3.03;;;2.42;;
33108;SDS011;19481;51.118;6.940;2023-08-24T02:06:03;3.40;;;2.75;;
33108;SDS011;19481;51.118;6.940;2023-08-24T02:11:07;6.35;;;2.83;;
33108;SDS011;19481;51.118;6.940;2023-08-24T02:16:10;2.70;;;2.38;;
33108;SDS011;19481;51.118;6.940;2023-08-24T02:21:12;4.10;;;2.20;;
33108;SDS011;19481;51.118;6.940;2023-08-24T02:26:14;3.67;;;2.60;;
33108;SDS011;19481;51.118;6.940;2023-08-24T02:31:17;3.75;;;2.67;;
33108;SDS011;19481;51.118;6.940;2023-08-24T02:36:19;6.80;;;2.60;;
33108;SDS011;19481;51.118;6.940;2023-08-24T02:41:20;2.35;;;2.08;;
33108;SDS011;19481;51.118;6.940;2023-08-24T02:46:23;3.88;;;2.45;;
33108;SDS011;19481;51.118;6.940;2023-08-24T02:51:25;3.50;;;2.47;;
33108;SDS011;19481;51.118;6.940;2023-08-24T02:56:27;3.50;;;2.58;;
33108;SDS011;19481;51.118;6.940;2023-08-24T03:01:30;3.15;;;2.72;;
33108;SDS011;19481;51.118;6.940;2023-08-24T03:06:31;4.43;;;2.70;;
33108;SDS011;19481;51.118;6.940;2023-08-24T03:11:33;4.00;;;2.45;;
33108;SDS011;19481;51.118;6.940;2023-08-24T03:16:36;3.35;;;2.72;;
33108;SDS011;19481;51.118;6.940;2023-08-24T03:21:38;3.20;;;2.63;;
33108;SDS011;19481;51.118;6.940;2023-08-24T03:26:40;7.32;;;2.35;;
33108;SDS011;19481;51.118;6.940;2023-08-24T03:31:43;3.42;;;2.53;;
33108;SDS011;19481;51.118;6.940;2023-08-24T03:36:44;4.82;;;2.00;;
33108;SDS011;19481;51.118;6.940;2023-08-24T03:41:47;6.85;;;2.90;;
33108;SDS011;19481;51.118;6.940;2023-08-24T03:46:50;6.32;;;2.58;;
33108;SDS011;19481;51.118;6.940;2023-08-24T03:51:52;3.58;;;2.38;;
33108;SDS011;19481;51.118;6.940;2023-08-24T03:56:53;4.03;;;2.50;;
33108;SDS011;19481;51.118;6.940;2023-08-24T04:01:56;3.53;;;2.40;;
33108;SDS011;19481;51.118;6.940;2023-08-24T04:07:01;4.70;;;2.33;;
33108;SDS011;19481;51.118;6.940;2023-08-24T04:12:03;5.63;;;2.53;;
33108;SDS011;19481;51.118;6.940;2023-08-24T04:17:07;3.55;;;2.55;;
33108;SDS011;19481;51.118;6.940;2023-08-24T04:22:09;7.70;;;2.75;;
33108;SDS011;19481;51.118;6.940;2023-08-24T04:27:10;6.30;;;2.70;;
33108;SDS011;19481;51.118;6.940;2023-08-24T04:32:13;8.50;;;2.53;;
33108;SDS011;19481;51.118;6.940;2023-08-24T04:37:15;3.90;;;2.38;;
33108;SDS011;19481;51.118;6.940;2023-08-24T04:42:17;4.28;;;2.70;;
33108;SDS011;19481;51.118;6.940;2023-08-24T04:47:20;3.95;;;2.67;;
33108;SDS011;19481;51.118;6.940;2023-08-24T04:52:21;5.53;;;2.88;;
33108;SDS011;19481;51.118;6.940;2023-08-24T04:57:23;3.20;;;2.88;;
33108;SDS011;19481;51.118;6.940;2023-08-24T05:02:26;9.02;;;3.30;;
33108;SDS011;19481;51.118;6.940;2023-08-24T05:07:28;6.22;;;3.05;;
33108;SDS011;19481;51.118;6.940;2023-08-24T05:12:30;4.72;;;3.08;;
33108;SDS011;19481;51.118;6.940;2023-08-24T05:17:36;7.40;;;3.00;;
33108;SDS011;19481;51.118;6.940;2023-08-24T05:22:37;8.68;;;3.10;;
33108;SDS011;19481;51.118;6.940;2023-08-24T05:27:39;3.95;;;3.00;;
33108;SDS011;19481;51.118;6.940;2023-08-24T05:32:42;5.82;;;3.33;;
33108;SDS011;19481;51.118;6.940;2023-08-24T05:37:44;5.15;;;2.80;;
33108;SDS011;19481;51.118;6.940;2023-08-24T05:42:45;8.15;;;2.90;;
33108;SDS011;19481;51.118;6.940;2023-08-24T05:47:48;8.43;;;3.22;;
33108;SDS011;19481;51.118;6.940;2023-08-24T05:52:50;5.05;;;3.10;;
33108;SDS011;19481;51.118;6.940;2023-08-24T05:57:52;7.03;;;3.13;;
33108;SDS011;19481;51.118;6.940;2023-08-24T06:02:55;3.97;;;2.97;;
33108;SDS011;19481;51.118;6.940;2023-08-24T06:07:56;7.25;;;3.08;;
33108;SDS011;19481;51.118;6.940;2023-08-24T06:12:58;5.95;;;3.13;;
33108;SDS011;19481;51.118;6.940;2023-08-24T06:18:03;4.72;;;3.08;;
33108;SDS011;19481;51.118;6.940;2023-08-24T06:23:05;8.02;;;3.13;;
33108;SDS011;19481;51.118;6.940;2023-08-24T06:28:07;10.45;;;3.08;;
33108;SDS011;19481;51.118;6.940;2023-08-24T06:33:11;6.10;;;2.70;;
33108;SDS011;19481;51.118;6.940;2023-08-24T06:38:13;4.15;;;2.65;;
33108;SDS011;19481;51.118;6.940;2023-08-24T06:43:14;5.40;;;3.05;;
33108;SDS011;19481;51.118;6.940;2023-08-24T06:48:17;3.05;;;2.30;;
33108;SDS011;19481;51.118;6.940;2023-08-24T06:53:19;4.35;;;2.15;;
33108;SDS011;19481;51.118;6.940;2023-08-24T06:58:21;5.57;;;2.20;;
33108;SDS011;19481;51.118;6.940;2023-08-24T07:03:24;2.40;;;1.60;;
33108;SDS011;19481;51.118;6.940;2023-08-24T07:08:25;2.55;;;1.77;;
33108;SDS011;19481;51.118;6.940;2023-08-24T07:13:27;5.65;;;1.73;;
33108;SDS011;19481;51.118;6.940;2023-08-24T07:18:30;4.97;;;1.67;;
33108;SDS011;19481;51.118;6.940;2023-08-24T07:23:32;2.85;;;1.80;;
33108;SDS011;19481;51.118;6.940;2023-08-24T07:28:33;2.60;;;1.70;;
33108;SDS011;19481;51.118;6.940;2023-08-24T07:33:37;3.92;;;1.67;;
33108;SDS011;19481;51.118;6.940;2023-08-24T07:38:39;6.03;;;1.90;;
33108;SDS011;19481;51.118;6.940;2023-08-24T07:43:40;6.18;;;2.13;;
33108;SDS011;19481;51.118;6.940;2023-08-24T07:48:43;2.60;;;1.55;;
33108;SDS011;19481;51.118;6.940;2023-08-24T07:53:45;1.45;;;1.23;;
33108;SDS011;19481;51.118;6.940;2023-08-24T07:58:47;3.08;;;1.70;;
33108;SDS011;19481;51.118;6.940;2023-08-24T08:03:50;2.65;;;1.33;;
33108;SDS011;19481;51.118;6.940;2023-08-24T08:08:51;1.83;;;1.30;;
33108;SDS011;19481;51.118;6.940;2023-08-24T08:13:53;2.08;;;1.65;;
33108;SDS011;19481;51.118;6.940;2023-08-24T08:18:56;3.78;;;1.42;;
33108;SDS011;19481;51.118;6.940;2023-08-24T08:23:58;3.53;;;1.90;;
33108;SDS011;19481;51.118;6.940;2023-08-24T08:28:59;2.88;;;1.65;;
33108;SDS011;19481;51.118;6.940;2023-08-24T08:34:03;3.42;;;1.48;;
33108;SDS011;19481;51.118;6.940;2023-08-24T08:39:05;1.70;;;1.50;;
33108;SDS011;19481;51.118;6.940;2023-08-24T08:44:06;6.05;;;1.50;;
33108;SDS011;19481;51.118;6.940;2023-08-24T08:49:11;3.25;;;1.60;;
33108;SDS011;19481;51.118;6.940;2023-08-24T08:54:16;6.75;;;1.60;;
33108;SDS011;19481;51.118;6.940;2023-08-24T08:59:18;2.20;;;1.60;;
33108;SDS011;19481;51.118;6.940;2023-08-24T09:04:21;1.70;;;1.30;;
33108;SDS011;19481;51.118;6.940;2023-08-24T09:09:24;4.85;;;1.83;;
33108;SDS011;19481;51.118;6.940;2023-08-24T09:14:26;2.00;;;1.73;;
33108;SDS011;19481;51.118;6.940;2023-08-24T09:19:29;2.05;;;1.45;;
33108;SDS011;19481;51.118;6.940;2023-08-24T09:24:32;4.25;;;1.60;;
33108;SDS011;19481;51.118;6.940;2023-08-24T09:29:36;1.38;;;1.27;;
33108;SDS011;19481;51.118;6.940;2023-08-24T09:34:39;3.55;;;1.70;;
33108;SDS011;19481;51.118;6.940;2023-08-24T09:39:41;2.25;;;1.40;;
33108;SDS011;19481;51.118;6.940;2023-08-24T09:44:43;3.05;;;1.45;;
33108;SDS011;19481;51.118;6.940;2023-08-24T09:49:46;3.92;;;1.50;;
33108;SDS011;19481;51.118;6.940;2023-08-24T09:54:49;1.40;;;1.30;;
33108;SDS011;19481;51.118;6.940;2023-08-24T09:59:53;2.88;;;1.48;;
33108;SDS011;19481;51.118;6.940;2023-08-24T10:04:56;2.35;;;1.60;;
33108;SDS011;19481;51.118;6.940;2023-08-24T10:10:02;5.20;;;1.77;;
33108;SDS011;19481;51.118;6.940;2023-08-24T10:15:05;3.28;;;1.40;;
33108;SDS011;19481;51.118;6.940;2023-08-24T10:20:09;1.85;;;1.60;;
33108;SDS011;19481;51.118;6.940;2023-08-24T10:25:11;3.78;;;1.42;;
33108;SDS011;19481;51.118;6.940;2023-08-24T10:30:14;3.25;;;1.60;;
33108;SDS011;19481;51.118;6.940;2023-08-24T10:35:18;3.83;;;1.77;;
33108;SDS011;19481;51.118;6.940;2023-08-24T10:40:30;2.00;;;1.40;;
33108;SDS011;19481;51.118;6.940;2023-08-24T10:56:20;3.40;;;1.75;;
33108;SDS011;19481;51.118;6.940;2023-08-24T11:01:22;4.55;;;1.77;;
33108;SDS011;19481;51.118;6.940;2023-08-24T11:06:25;7.70;;;1.45;;
33108;SDS011;19481;51.118;6.940;2023-08-24T11:11:28;4.15;;;1.75;;
33108;SDS011;19481;51.118;6.940;2023-08-24T11:16:40;3.78;;;1.52;;
33108;SDS011;19481;51.118;6.940;2023-08-24T11:21:45;3.25;;;1.90;;
33108;SDS011;19481;51.118;6.940;2023-08-24T11:26:47;2.00;;;1.60;;
33108;SDS011;19481;51.118;6.940;2023-08-24T11:31:50;3.45;;;2.22;;
33108;SDS011;19481;51.118;6.940;2023-08-24T11:36:54;3.33;;;1.80;;
33108;SDS011;19481;51.118;6.940;2023-08-24T11:41:56;1.58;;;1.45;;
33108;SDS011;19481;51.118;6.940;2023-08-24T11:46:59;5.93;;;1.33;;
33108;SDS011;19481;51.118;6.940;2023-08-24T11:52:02;2.05;;;1.20;;
33108;SDS011;19481;51.118;6.940;2023-08-24T11:57:05;4.45;;;1.27;;
33108;SDS011;19481;51.118;6.940;2023-08-24T12:02:08;2.75;;;1.40;;
33108;SDS011;19481;51.118;6.940;2023-08-24T12:07:15;3.30;;;1.23;;
33108;SDS011;19481;51.118;6.940;2023-08-24T12:12:18;3.20;;;1.25;;
33108;SDS011;19481;51.118;6.940;2023-08-24T12:17:20;3.55;;;1.80;;
33108;SDS011;19481;51.118;6.940;2023-08-24T12:22:23;1.83;;;1.50;;
33108;SDS011;19481;51.118;6.940;2023-08-24T12:27:26;5.45;;;1.58;;
33108;SDS011;19481;51.118;6.940;2023-08-24T12:32:41;2.70;;;1.55;;
33108;SDS011;19481;51.118;6.940;2023-08-24T12:37:44;5.57;;;2.08;;
33108;SDS011;19481;51.118;6.940;2023-08-24T12:42:46;4.95;;;1.75;;
33108;SDS011;19481;51.118;6.940;2023-08-24T12:47:48;5.93;;;1.58;;
33108;SDS011;19481;51.118;6.940;2023-08-24T12:52:51;2.30;;;1.85;;
33108;SDS011;19481;51.118;6.940;2023-08-24T12:57:56;4.75;;;1.80;;
33108;SDS011;19481;51.118;6.940;2023-08-24T13:02:58;5.40;;;2.03;;
33108;SDS011;19481;51.118;6.940;2023-08-24T13:08:01;4.05;;;1.73;;
33108;SDS011;19481;51.118;6.940;2023-08-24T13:13:03;2.10;;;1.70;;
33108;SDS011;19481;51.118;6.940;2023-08-24T13:18:04;6.55;;;1.80;;
33108;SDS011;19481;51.118;6.940;2023-08-24T13:23:08;5.88;;;2.05;;
33108;SDS011;19481;51.118;6.940;2023-08-24T13:28:09;4.07;;;1.70;;
33108;SDS011;19481;51.118;6.940;2023-08-24T13:33:11;8.60;;;2.28;;
33108;SDS011;19481;51.118;6.940;2023-08-24T13:38:16;7.07;;;1.77;;
33108;SDS011;19481;51.118;6.940;2023-08-24T13:43:18;7.22;;;2.20;;
33108;SDS011;19481;51.118;6.940;2023-08-24T13:48:20;4.43;;;2.13;;
33108;SDS011;19481;51.118;6.940;2023-08-24T13:53:25;10.80;;;2.30;;
33108;SDS011;19481;51.118;6.940;2023-08-24T13:58:27;3.28;;;2.05;;
33108;SDS011;19481;51.118;6.940;2023-08-24T14:03:28;5.55;;;2.22;;
33108;SDS011;19481;51.118;6.940;2023-08-24T14:08:31;4.00;;;1.73;;
33108;SDS011;19481;51.118;6.940;2023-08-24T14:13:33;6.65;;;2.05;;
33108;SDS011;19481;51.118;6.940;2023-08-24T14:18:35;5.93;;;1.90;;
33108;SDS011;19481;51.118;6.940;2023-08-24T14:23:38;7.07;;;1.55;;
33108;SDS011;19481;51.118;6.940;2023-08-24T14:28:47;5.70;;;1.88;;
33108;SDS011;19481;51.118;6.940;2023-08-24T14:33:49;3.33;;;1.40;;
33108;SDS011;19481;51.118;6.940;2023-08-24T14:38:53;4.88;;;1.73;;
33108;SDS011;19481;51.118;6.940;2023-08-24T14:43:55;5.60;;;1.70;;
33108;SDS011;19481;51.118;6.940;2023-08-24T14:48:56;2.72;;;1.58;;
33108;SDS011;19481;51.118;6.940;2023-08-24T14:53:59;4.28;;;1.50;;
33108;SDS011;19481;51.118;6.940;2023-08-24T14:59:01;4.07;;;1.50;;
33108;SDS011;19481;51.118;6.940;2023-08-24T15:04:03;2.13;;;1.15;;
33108;SDS011;19481;51.118;6.940;2023-08-24T15:09:06;5.97;;;1.40;;
33108;SDS011;19481;51.118;6.940;2023-08-24T15:14:08;2.10;;;1.40;;
33108;SDS011;19481;51.118;6.940;2023-08-24T15:19:10;1.77;;;1.35;;
33108;SDS011;19481;51.118;6.940;2023-08-24T15:24:13;2.17;;;1.40;;
33108;SDS011;19481;51.118;6.940;2023-08-24T15:29:14;5.47;;;1.75;;
33108;SDS011;19481;51.118;6.940;2023-08-24T15:34:17;3.30;;;1.50;;
33108;SDS011;19481;51.118;6.940;2023-08-24T15:39:20;5.20;;;1.45;;
33108;SDS011;19481;51.118;6.940;2023-08-24T15:44:22;2.00;;;1.30;;
33108;SDS011;19481;51.118;6.940;2023-08-24T15:49:24;3.58;;;1.40;;
33108;SDS011;19481;51.118;6.940;2023-08-24T15:54:27;4.47;;;1.60;;
33108;SDS011;19481;51.118;6.940;2023-08-24T15:59:29;3.85;;;1.40;;
33108;SDS011;19481;51.118;6.940;2023-08-24T16:04:31;2.38;;;1.25;;
33108;SDS011;19481;51.118;6.940;2023-08-24T16:09:34;1.35;;;1.25;;
33108;SDS011;19481;51.118;6.940;2023-08-24T16:14:35;6.90;;;1.40;;
33108;SDS011;19481;51.118;6.940;2023-08-24T16:19:37;3.08;;;1.40;;
33108;SDS011;19481;51.118;6.940;2023-08-24T16:24:40;2.78;;;1.63;;
33108;SDS011;19481;51.118;6.940;2023-08-24T16:29:42;3.40;;;1.73;;
33108;SDS011;19481;51.118;6.940;2023-08-24T16:34:43;4.88;;;1.42;;
33108;SDS011;19481;51.118;6.940;2023-08-24T16:39:46;2.65;;;1.40;;
33108;SDS011;19481;51.118;6.940;2023-08-24T16:44:48;4.70;;;1.55;;
33108;SDS011;19481;51.118;6.940;2023-08-24T16:49:50;3.63;;;1.52;;
33108;SDS011;19481;51.118;6.940;2023-08-24T16:54:53;6.15;;;1.40;;
33108;SDS011;19481;51.118;6.940;2023-08-24T16:59:54;2.40;;;1.27;;
33108;SDS011;19481;51.118;6.940;2023-08-24T17:04:56;4.30;;;1.60;;
33108;SDS011;19481;51.118;6.940;2023-08-24T17:09:59;2.80;;;1.20;;
33108;SDS011;19481;51.118;6.940;2023-08-24T17:15:00;12.23;;;1.63;;
33108;SDS011;19481;51.118;6.940;2023-08-24T17:20:03;3.35;;;1.40;;
33108;SDS011;19481;51.118;6.940;2023-08-24T17:25:07;3.50;;;1.40;;
33108;SDS011;19481;51.118;6.940;2023-08-24T17:30:10;2.75;;;1.30;;
33108;SDS011;19481;51.118;6.940;2023-08-24T17:35:12;2.60;;;1.30;;
33108;SDS011;19481;51.118;6.940;2023-08-24T17:40:15;7.30;;;1.83;;
33108;SDS011;19481;51.118;6.940;2023-08-24T17:45:17;5.53;;;1.40;;
33108;SDS011;19481;51.118;6.940;2023-08-24T17:50:21;1.95;;;1.38;;
33108;SDS011;19481;51.118;6.940;2023-08-24T17:55:24;3.22;;;1.27;;
33108;SDS011;19481;51.118;6.940;2023-08-24T18:00:27;3.35;;;1.50;;
33108;SDS011;19481;51.118;6.940;2023-08-24T18:05:28;1.75;;;1.23;;
33108;SDS011;19481;51.118;6.940;2023-08-24T18:10:35;4.20;;;1.08;;
33108;SDS011;19481;51.118;6.940;2023-08-24T18:15:37;3.63;;;1.40;;
33108;SDS011;19481;51.118;6.940;2023-08-24T18:20:39;5.05;;;2.40;;
33108;SDS011;19481;51.118;6.940;2023-08-24T18:25:42;3.33;;;1.60;;
33108;SDS011;19481;51.118;6.940;2023-08-24T18:30:44;1.27;;;1.10;;
33108;SDS011;19481;51.118;6.940;2023-08-24T18:35:45;1.27;;;1.17;;
33108;SDS011;19481;51.118;6.940;2023-08-24T18:40:51;2.72;;;1.48;;
33108;SDS011;19481;51.118;6.940;2023-08-24T18:45:53;3.38;;;1.10;;
33108;SDS011;19481;51.118;6.940;2023-08-24T18:50:55;2.50;;;1.42;;
33108;SDS011;19481;51.118;6.940;2023-08-24T18:55:58;3.45;;;1.67;;
33108;SDS011;19481;51.118;6.940;2023-08-24T19:01:02;3.78;;;1.15;;
33108;SDS011;19481;51.118;6.940;2023-08-24T19:06:04;3.75;;;1.50;;
33108;SDS011;19481;51.118;6.940;2023-08-24T19:11:07;3.42;;;1.90;;
33108;SDS011;19481;51.118;6.940;2023-08-24T19:16:09;3.33;;;1.65;;
33108;SDS011;19481;51.118;6.940;2023-08-24T19:21:11;4.10;;;1.40;;
33108;SDS011;19481;51.118;6.940;2023-08-24T19:26:15;2.00;;;1.42;;
33108;SDS011;19481;51.118;6.940;2023-08-24T19:31:17;4.05;;;1.83;;
33108;SDS011;19481;51.118;6.940;2023-08-24T19:36:18;2.90;;;1.70;;
33108;SDS011;19481;51.118;6.940;2023-08-24T19:41:21;4.25;;;1.70;;
33108;SDS011;19481;51.118;6.940;2023-08-24T19:46:25;4.55;;;1.80;;
33108;SDS011;19481;51.118;6.940;2023-08-24T19:51:28;2.70;;;1.77;;
33108;SDS011;19481;51.118;6.940;2023-08-24T19:56:31;2.55;;;1.80;;
33108;SDS011;19481;51.118;6.940;2023-08-24T20:01:33;4.53;;;1.70;;
33108;SDS011;19481;51.118;6.940;2023-08-24T20:06:35;2.30;;;1.70;;
33108;SDS011;19481;51.118;6.940;2023-08-24T20:11:38;2.13;;;1.48;;
33108;SDS011;19481;51.118;6.940;2023-08-24T20:16:40;2.40;;;2.08;;
33108;SDS011;19481;51.118;6.940;2023-08-24T20:21:41;2.50;;;1.85;;
33108;SDS011;19481;51.118;6.940;2023-08-24T20:26:44;3.13;;;1.85;;
33108;SDS011;19481;51.118;6.940;2023-08-24T20:31:46;2.85;;;1.80;;
33108;SDS011;19481;51.118;6.940;2023-08-24T20:36:48;11.10;;;2.00;;
33108;SDS011;19481;51.118;6.940;2023-08-24T20:41:52;3.08;;;1.58;;
33108;SDS011;19481;51.118;6.940;2023-08-24T20:47:12;2.92;;;1.73;;
33108;SDS011;19481;51.118;6.940;2023-08-24T20:52:14;3.40;;;1.77;;
33108;SDS011;19481;51.118;6.940;2023-08-24T20:57:17;3.85;;;1.73;;
33108;SDS011;19481;51.118;6.940;2023-08-24T21:02:19;4.85;;;1.63;;
33108;SDS011;19481;51.118;6.940;2023-08-24T21:07:20;3.40;;;1.60;;
33108;SDS011;19481;51.118;6.940;2023-08-24T21:12:25;3.88;;;1.60;;
33108;SDS011;19481;51.118;6.940;2023-08-24T21:17:27;4.32;;;1.67;;
33108;SDS011;19481;51.118;6.940;2023-08-24T21:22:29;2.20;;;1.52;;
33108;SDS011;19481;51.118;6.940;2023-08-24T21:27:32;3.85;;;1.90;;
33108;SDS011;19481;51.118;6.940;2023-08-24T21:32:34;3.38;;;1.70;;
33108;SDS011;19481;51.118;6.940;2023-08-24T21:37:36;2.22;;;1.92;;
33108;SDS011;19481;51.118;6.940;2023-08-24T21:42:39;2.95;;;1.73;;
33108;SDS011;19481;51.118;6.940;2023-08-24T21:47:41;6.85;;;1.98;;
33108;SDS011;19481;51.118;6.940;2023-08-24T21:52:42;3.05;;;1.95;;
33108;SDS011;19481;51.118;6.940;2023-08-24T21:57:45;2.92;;;1.75;;
33108;SDS011;19481;51.118;6.940;2023-08-24T22:02:47;4.35;;;1.98;;
33108;SDS011;19481;51.118;6.940;2023-08-24T22:07:49;2.17;;;1.67;;
33108;SDS011;19481;51.118;6.940;2023-08-24T22:12:52;2.33;;;1.90;;
33108;SDS011;19481;51.118;6.940;2023-08-24T22:17:53;2.13;;;1.60;;
33108;SDS011;19481;51.118;6.940;2023-08-24T22:22:55;3.38;;;2.05;;
33108;SDS011;19481;51.118;6.940;2023-08-24T22:27:58;5.53;;;1.85;;
33108;SDS011;19481;51.118;6.940;2023-08-24T22:33:01;2.42;;;1.83;;
33108;SDS011;19481;51.118;6.940;2023-08-24T22:38:04;7.85;;;2.42;;
33108;SDS011;19481;51.118;6.940;2023-08-24T22:43:07;3.33;;;2.13;;
33108;SDS011;19481;51.118;6.940;2023-08-24T22:48:09;3.22;;;2.10;;
33108;SDS011;19481;51.118;6.940;2023-08-24T22:53:11;3.28;;;2.20;;
33108;SDS011;19481;51.118;6.940;2023-08-24T22:58:14;3.22;;;2.20;;
33108;SDS011;19481;51.118;6.940;2023-08-24T23:03:16;4.60;;;2.38;;
33108;SDS011;19481;51.118;6.940;2023-08-24T23:08:18;2.45;;;2.20;;
33108;SDS011;19481;51.118;6.940;2023-08-24T23:13:21;2.72;;;2.50;;
33108;SDS011;19481;51.118;6.940;2023-08-24T23:18:22;4.05;;;2.60;;
33108;SDS011;19481;51.118;6.940;2023-08-24T23:23:24;11.10;;;2.47;;
33108;SDS011;19481;51.118;6.940;2023-08-24T23:28:27;2.25;;;1.98;;
33108;SDS011;19481;51.118;6.940;2023-08-24T23:33:29;3.50;;;2.33;;
33108;SDS011;19481;51.118;6.940;2023-08-24T23:38:31;2.78;;;1.92;;
33108;SDS011;19481;51.118;6.940;2023-08-24T23:43:34;11.75;;;2.90;;
33108;SDS011;19481;51.118;6.940;2023-08-24T23:48:36;9.52;;;2.45;;
33108;SDS011;19481;51.118;6.940;2023-08-24T23:53:38;5.03;;;2.00;;
33108;SDS011;19481;51.118;6.940;2023-08-24T23:58:41;4.68;;;2.17;;
